Time;durP1;ratioP1;P1;durP2;ratioP2;P2;SDS_P1;SDS_P2;PMS_P1;PMS_P2;Temp;Humidity;BMP_temperature;BMP_pressure;BME280_temperature;BME280_humidity;BME280_pressure;Samples;Min_cycle;Max_cycle;Signal;HPM_P1;HPM_P2
2022/10/19 07:47:41;;;;;;;6.67;2.40;;;13.80;99.90;;;;;;6345714;22;20668;-72
2022/10/19 07:50:08;;;;;;;5.27;2.70;;;13.70;99.90;;;;;;6334801;22;20215;-73
2022/10/19 07:52:35;;;;;;;5.63;2.40;;;13.90;99.90;;;;;;6337672;22;20184;-74
2022/10/19 07:55:02;;;;;;;7.20;2.60;;;13.50;99.90;;;;;;6338451;22;20204;-72
2022/10/19 07:57:29;;;;;;;6.27;2.30;;;13.20;99.90;;;;;;6337470;22;20659;-74
2022/10/19 07:59:55;;;;;;;4.97;2.40;;;13.20;99.90;;;;;;6338281;22;20181;-73
2022/10/19 08:02:22;;;;;;;8.33;3.10;;;13.10;99.90;;;;;;6338477;22;20181;-73
2022/10/19 08:04:51;;;;;;;8.83;3.07;;;13.20;99.90;;;;;;6338332;22;20204;-73
2022/10/19 08:07:17;;;;;;;4.10;2.60;;;13.40;99.90;;;;;;6338149;22;20180;-73
2022/10/19 08:09:44;;;;;;;8.57;2.30;;;13.70;99.90;;;;;;6334571;22;20212;-73
2022/10/19 08:12:11;;;;;;;8.67;2.37;;;13.70;99.90;;;;;;6337496;22;20497;-73
2022/10/19 08:14:38;;;;;;;6.27;2.53;;;13.40;99.90;;;;;;6336275;22;20193;-73
2022/10/19 08:17:05;;;;;;;5.90;3.00;;;13.40;99.90;;;;;;6335534;22;20173;-73
2022/10/19 08:19:31;;;;;;;6.47;2.60;;;13.40;99.90;;;;;;6333704;22;20728;-73
2022/10/19 08:22:00;;;;;;;12.27;2.93;;;13.50;99.90;;;;;;6335685;22;20174;-73
2022/10/19 08:24:26;;;;;;;4.30;2.43;;;13.30;99.90;;;;;;6336060;22;20197;-73
2022/10/19 08:26:53;;;;;;;6.40;2.73;;;13.00;99.90;;;;;;6335814;22;20177;-73
2022/10/19 08:29:21;;;;;;;7.80;3.47;;;13.00;99.90;;;;;;6336086;22;20672;-73
2022/10/19 08:31:49;;;;;;;6.57;2.70;;;12.90;99.90;;;;;;6337081;22;20625;-73
2022/10/19 08:34:16;;;;;;;7.77;2.47;;;12.60;99.90;;;;;;6336996;22;20173;-73
2022/10/19 08:36:43;;;;;;;9.53;3.10;;;12.50;99.90;;;;;;6336658;22;20640;-73
2022/10/19 08:39:12;;;;;;;4.50;2.53;;;12.50;99.90;;;;;;6334473;22;20177;-74
2022/10/19 08:41:57;;;;;;;8.83;3.40;;;12.70;99.90;;;;;;6337015;22;20256;-74
2022/10/19 08:44:49;;;;;;;4.97;3.10;;;12.90;99.90;;;;;;6336723;22;21467;-74
2022/10/19 08:47:27;;;;;;;5.07;2.70;;;12.80;99.90;;;;;;6336824;22;20342;-75
2022/10/19 08:49:55;;;;;;;6.17;2.90;;;12.80;99.90;;;;;;6336357;22;20205;-74
2022/10/19 08:52:24;;;;;;;8.10;3.20;;;12.70;99.90;;;;;;6336599;22;20498;-75
2022/10/19 08:54:55;;;;;;;6.73;3.03;;;12.70;99.90;;;;;;6336757;22;20244;-75
2022/10/19 08:57:37;;;;;;;5.07;2.70;;;12.80;99.90;;;;;;6337702;22;20180;-75
2022/10/19 09:00:11;;;;;;;6.03;3.07;;;12.80;99.90;;;;;;6338625;22;20180;-74
2022/10/19 09:02:53;;;;;;;5.20;2.53;;;12.90;99.90;;;;;;6338875;22;20508;-75
2022/10/19 09:05:31;;;;;;;8.17;2.80;;;12.90;99.90;;;;;;6338510;22;20197;-73
2022/10/19 09:07:58;;;;;;;4.53;2.70;;;12.90;99.90;;;;;;6339160;22;20278;-73
2022/10/19 09:10:32;;;;;;;5.63;2.57;;;13.00;99.90;;;;;;6338809;22;20207;-73
2022/10/19 09:13:02;;;;;;;8.33;3.10;;;13.10;99.90;;;;;;6336383;22;20174;-73
2022/10/19 09:15:34;;;;;;;5.90;2.90;;;13.10;99.90;;;;;;6337922;22;20224;-73
2022/10/19 09:18:02;;;;;;;6.23;3.00;;;13.20;99.90;;;;;;6338422;22;20173;-73
2022/10/19 09:20:34;;;;;;;7.57;2.50;;;13.40;99.90;;;;;;6338195;22;20180;-73
2022/10/19 09:23:04;;;;;;;8.27;2.50;;;13.40;99.90;;;;;;6337908;22;20180;-73
2022/10/19 09:25:35;;;;;;;8.27;3.20;;;13.50;99.90;;;;;;6337659;22;20219;-73
2022/10/19 09:28:14;;;;;;;7.57;2.67;;;13.60;99.90;;;;;;6337353;22;20625;-73
2022/10/19 09:30:42;;;;;;;5.43;2.93;;;13.80;99.90;;;;;;6337569;22;20668;-73
2022/10/19 09:33:15;;;;;;;7.73;3.20;;;13.60;99.90;;;;;;6337479;22;20637;-73
2022/10/19 09:35:45;;;;;;;7.90;2.97;;;13.70;99.90;;;;;;6337940;22;20204;-74
2022/10/19 09:38:16;;;;;;;4.90;2.50;;;13.80;99.90;;;;;;6338739;22;20200;-74
2022/10/19 09:40:44;;;;;;;8.37;2.40;;;14.00;99.90;;;;;;6338209;22;20180;-75
2022/10/19 09:43:20;;;;;;;9.57;2.80;;;14.10;99.90;;;;;;6338219;22;20509;-75
2022/10/19 09:45:52;;;;;;;6.17;2.53;;;14.20;99.90;;;;;;6338354;22;20847;-73
2022/10/19 09:48:28;;;;;;;7.27;3.20;;;14.10;99.90;;;;;;6338177;22;20188;-74
2022/10/19 09:50:58;;;;;;;8.50;3.40;;;14.20;99.90;;;;;;6338003;22;20201;-74
2022/10/19 09:53:26;;;;;;;7.33;2.97;;;14.30;99.90;;;;;;6338403;22;20177;-74
2022/10/19 09:55:59;;;;;;;5.13;2.80;;;14.20;99.90;;;;;;6338306;22;20194;-74
2022/10/19 09:58:28;;;;;;;8.20;3.60;;;14.20;99.90;;;;;;6337979;22;20173;-74
2022/10/19 10:00:56;;;;;;;8.33;3.30;;;14.20;99.90;;;;;;6338071;22;20174;-74
2022/10/19 10:03:29;;;;;;;5.43;3.27;;;14.20;99.90;;;;;;6337378;22;20185;-74
2022/10/19 10:05:58;;;;;;;6.50;3.00;;;14.30;99.90;;;;;;6338149;22;20509;-74
2022/10/19 10:08:27;;;;;;;9.30;3.20;;;14.30;99.90;;;;;;6338543;22;20173;-74
2022/10/19 10:11:03;;;;;;;6.90;3.27;;;14.40;99.90;;;;;;6336367;22;20288;-74
2022/10/19 10:13:30;;;;;;;8.13;3.23;;;14.40;99.90;;;;;;6338279;22;20180;-74
2022/10/19 10:16:01;;;;;;;7.77;3.30;;;14.30;99.90;;;;;;6337886;22;20197;-74
2022/10/19 10:18:29;;;;;;;7.03;3.50;;;14.40;99.90;;;;;;6338314;22;20180;-74
2022/10/19 10:20:58;;;;;;;8.00;3.27;;;14.40;99.90;;;;;;6337639;22;20224;-74
2022/10/19 10:23:28;;;;;;;8.30;3.33;;;14.60;99.90;;;;;;6338340;22;20500;-74
2022/10/19 10:25:56;;;;;;;8.77;3.23;;;14.60;99.90;;;;;;6337677;22;20550;-74
2022/10/19 10:28:26;;;;;;;5.50;2.93;;;14.60;99.90;;;;;;6338161;22;20231;-73
2022/10/19 10:30:58;;;;;;;10.47;3.37;;;14.60;99.90;;;;;;6337567;22;20205;-73
2022/10/19 10:33:27;;;;;;;5.77;2.83;;;14.60;99.90;;;;;;6338570;22;20177;-74
2022/10/19 10:35:56;;;;;;;7.97;3.37;;;14.80;99.90;;;;;;6338115;22;20268;-74
2022/10/19 10:38:26;;;;;;;8.83;3.33;;;14.90;99.90;;;;;;6338570;22;20173;-74
2022/10/19 10:40:56;;;;;;;7.60;2.87;;;15.10;99.90;;;;;;6337938;22;20636;-74
2022/10/19 10:43:30;;;;;;;7.23;3.90;;;15.20;99.90;;;;;;6338051;22;20173;-75
2022/10/19 10:46:02;;;;;;;5.93;2.77;;;15.20;99.90;;;;;;6338098;22;20193;-75
2022/10/19 10:48:31;;;;;;;7.73;3.70;;;15.30;99.90;;;;;;6337635;22;20199;-75
2022/10/19 10:51:00;;;;;;;7.27;3.40;;;15.40;99.90;;;;;;6335324;22;20205;-74
2022/10/19 10:53:39;;;;;;;8.23;3.30;;;15.40;99.90;;;;;;6337146;22;20178;-74
2022/10/19 10:56:22;;;;;;;8.03;3.30;;;15.40;99.90;;;;;;6337663;22;20223;-74
2022/10/19 10:58:58;;;;;;;10.60;3.10;;;15.30;99.90;;;;;;6338229;22;20177;-75
2022/10/19 11:01:30;;;;;;;8.00;3.40;;;15.40;99.90;;;;;;6337534;22;20691;-75
2022/10/19 11:04:03;;;;;;;10.20;3.20;;;15.40;99.90;;;;;;6337968;22;20274;-76
2022/10/19 11:06:32;;;;;;;7.60;3.23;;;15.40;99.90;;;;;;6337689;22;20177;-75
2022/10/19 11:09:06;;;;;;;11.67;3.00;;;15.50;99.90;;;;;;6338076;22;20212;-76
2022/10/19 11:11:36;;;;;;;8.17;3.83;;;15.50;99.90;;;;;;6338095;22;20258;-75
2022/10/19 11:14:30;;;;;;;6.20;3.07;;;15.60;99.90;;;;;;6338211;22;20174;-76
2022/10/19 11:16:59;;;;;;;8.20;3.30;;;15.80;99.90;;;;;;6337989;22;20173;-76
2022/10/19 11:19:32;;;;;;;6.00;3.03;;;15.90;99.90;;;;;;6336834;22;20179;-75
2022/10/19 11:22:11;;;;;;;7.80;3.47;;;15.90;99.90;;;;;;6337382;22;20177;-75
2022/10/19 11:24:50;;;;;;;5.27;2.93;;;16.00;99.90;;;;;;6338010;22;20193;-76
2022/10/19 11:27:27;;;;;;;8.37;2.90;;;16.10;99.90;;;;;;6338433;22;20179;-75
2022/10/19 11:30:07;;;;;;;6.30;3.17;;;16.00;99.90;;;;;;6337652;22;20204;-75
2022/10/19 11:32:45;;;;;;;9.50;2.97;;;16.00;99.90;;;;;;6335872;22;20260;-76
2022/10/19 11:35:29;;;;;;;6.67;2.60;;;16.10;99.90;;;;;;6337432;22;20193;-75
2022/10/19 11:38:05;;;;;;;8.87;3.33;;;16.20;99.90;;;;;;6337578;22;20251;-75
2022/10/19 11:40:38;;;;;;;8.37;2.87;;;16.20;99.90;;;;;;6337160;22;20173;-74
2022/10/19 11:43:11;;;;;;;5.83;2.77;;;16.20;99.90;;;;;;6337569;22;20177;-75
2022/10/19 11:45:52;;;;;;;5.20;3.03;;;16.20;99.90;;;;;;6337776;22;20193;-74
2022/10/19 11:48:50;;;;;;;7.60;3.13;;;16.20;99.90;;;;;;6337434;22;20181;-74
2022/10/19 11:51:25;;;;;;;7.83;3.10;;;16.20;99.90;;;;;;6307642;22;20205;-76
2022/10/19 11:54:04;;;;;;;10.27;3.20;;;16.20;99.90;;;;;;6338454;22;20178;-74
2022/10/19 11:56:38;;;;;;;7.70;3.27;;;16.40;99.90;;;;;;6338175;22;20173;-74
2022/10/19 11:59:15;;;;;;;9.77;3.37;;;16.50;99.90;;;;;;6338091;22;20501;-74
2022/10/19 12:01:54;;;;;;;9.83;3.13;;;16.50;99.90;;;;;;6337901;22;20177;-76
2022/10/19 12:04:50;;;;;;;9.90;3.30;;;16.50;99.90;;;;;;6337974;22;20630;-75
2022/10/19 12:07:40;;;;;;;7.70;3.27;;;16.50;99.90;;;;;;6338129;22;20177;-74
2022/10/19 12:10:17;;;;;;;6.13;3.33;;;16.70;99.90;;;;;;6338640;22;20255;-75
2022/10/19 12:12:47;;;;;;;6.70;2.90;;;16.80;99.90;;;;;;6338415;22;20177;-75
2022/10/19 12:15:25;;;;;;;8.73;3.23;;;16.80;99.90;;;;;;6338001;22;20197;-75
2022/10/19 12:17:57;;;;;;;8.63;2.90;;;16.70;99.90;;;;;;6337929;22;20183;-76
2022/10/19 12:20:30;;;;;;;6.80;2.90;;;16.90;99.90;;;;;;6337885;22;20181;-75
2022/10/19 12:22:58;;;;;;;9.37;3.70;;;17.00;99.90;;;;;;6338404;22;20286;-74
2022/10/19 12:25:26;;;;;;;8.90;3.40;;;17.10;99.90;;;;;;6338272;22;20193;-74
2022/10/19 12:27:54;;;;;;;6.53;3.10;;;17.10;99.90;;;;;;6338133;22;20199;-74
2022/10/19 12:30:23;;;;;;;6.97;3.40;;;17.10;99.90;;;;;;6334272;22;20208;-76
2022/10/19 12:33:01;;;;;;;10.60;3.23;;;17.10;99.90;;;;;;6339431;22;20712;-74
2022/10/19 12:35:44;;;;;;;9.37;3.30;;;17.10;99.90;;;;;;6340077;22;20197;-79
2022/10/19 12:38:16;;;;;;;8.15;3.22;;;17.20;99.90;;;;;;6340547;22;20179;-75
2022/10/19 12:40:51;;;;;;;9.10;3.10;;;17.10;99.90;;;;;;6340266;22;20260;-76
2022/10/19 12:43:25;;;;;;;5.73;3.30;;;17.00;99.90;;;;;;6340505;22;20176;-76
2022/10/19 12:46:01;;;;;;;7.00;2.60;;;17.10;99.90;;;;;;6339242;22;20201;-77
2022/10/19 12:48:29;;;;;;;7.20;2.90;;;17.30;99.90;;;;;;6339449;22;20260;-74
2022/10/19 12:51:15;;;;;;;5.67;3.20;;;17.30;99.90;;;;;;6341135;22;20211;-78
2022/10/19 12:53:46;;;;;;;6.43;2.80;;;17.30;99.90;;;;;;6342881;22;20238;-75
2022/10/19 12:56:21;;;;;;;6.43;2.80;;;17.40;99.90;;;;;;6340213;22;20246;-75
2022/10/19 12:58:55;;;;;;;8.80;3.50;;;17.40;99.90;;;;;;6340941;22;20216;-74
2022/10/19 13:01:26;;;;;;;4.73;2.50;;;17.40;99.90;;;;;;6339753;22;20211;-73
2022/10/19 13:04:10;;;;;;;6.03;2.50;;;17.50;99.90;;;;;;6339699;22;20200;-74
2022/10/19 13:06:40;;;;;;;6.00;3.10;;;17.30;99.90;;;;;;6339890;22;20241;-74
2022/10/19 13:09:09;;;;;;;8.20;2.23;;;17.10;99.90;;;;;;6339627;22;20208;-73
2022/10/19 13:11:37;;;;;;;6.93;2.90;;;17.10;99.90;;;;;;6339213;22;20201;-73
2022/10/19 13:14:07;;;;;;;6.80;2.97;;;17.10;99.90;;;;;;6339878;22;20195;-73
2022/10/19 13:16:56;;;;;;;4.27;2.60;;;17.00;99.90;;;;;;6339416;22;20632;-73
2022/10/19 13:19:25;;;;;;;5.60;2.47;;;17.00;99.90;;;;;;6339779;22;20180;-73
2022/10/19 13:22:25;;;;;;;4.93;2.40;;;17.00;99.90;;;;;;6339429;22;20183;-74
2022/10/19 13:25:22;;;;;;;6.00;2.40;;;17.20;99.90;;;;;;6339151;22;20258;-76
2022/10/19 13:27:50;;;;;;;6.47;2.77;;;17.20;99.90;;;;;;6338719;22;20185;-73
2022/10/19 13:30:55;;;;;;;7.07;2.37;;;17.30;99.90;;;;;;6338959;22;20173;-73
2022/10/19 13:33:48;;;;;;;5.20;2.43;;;17.30;99.90;;;;;;6339706;22;20208;-74
2022/10/19 13:36:17;;;;;;;4.93;2.20;;;17.30;99.90;;;;;;6339357;22;20197;-73
2022/10/19 13:38:46;;;;;;;7.80;2.70;;;17.20;99.90;;;;;;6339559;22;20177;-73
2022/10/19 13:41:20;;;;;;;7.17;2.43;;;17.20;99.90;;;;;;6339071;22;20531;-73
2022/10/19 13:43:55;;;;;;;7.50;2.53;;;17.20;99.90;;;;;;6338554;22;20229;-74
2022/10/19 13:46:26;;;;;;;5.83;2.27;;;17.30;99.90;;;;;;6339077;22;20224;-73
2022/10/19 13:49:40;;;;;;;3.47;2.20;;;17.20;99.90;;;;;;6339308;22;20185;-73
2022/10/19 13:52:43;;;;;;;6.50;2.47;;;17.20;99.90;;;;;;6183229;23;20215;-73
2022/10/19 13:55:50;;;;;;;5.60;2.90;;;17.20;99.90;;;;;;6326091;22;20192;-72
2022/10/19 13:58:36;;;;;;;4.47;2.30;;;17.20;99.90;;;;;;6338603;22;20263;-72
2022/10/19 14:01:18;;;;;;;6.40;2.23;;;17.20;99.90;;;;;;6338529;22;20177;-72
2022/10/19 14:04:07;;;;;;;5.53;2.67;;;17.30;99.90;;;;;;6338965;22;20497;-72
2022/10/19 14:06:38;;;;;;;4.75;2.70;;;17.40;99.90;;;;;;6339140;22;20174;-73
2022/10/19 14:09:47;;;;;;;7.43;2.70;;;17.30;99.90;;;;;;6339275;22;20180;-72
2022/10/19 14:12:22;;;;;;;7.20;2.40;;;17.30;99.90;;;;;;6338906;22;20552;-72
2022/10/19 14:14:52;;;;;;;3.93;2.23;;;17.30;99.90;;;;;;6339140;22;20204;-72
2022/10/19 14:17:23;;;;;;;5.93;2.73;;;17.40;99.90;;;;;;6339130;22;20209;-73
2022/10/19 14:19:51;;;;;;;7.63;2.63;;;17.40;99.90;;;;;;6337764;22;20625;-72
2022/10/19 14:22:29;;;;;;;5.18;2.65;;;17.30;99.90;;;;;;6335020;22;20494;-73
2022/10/19 14:25:06;;;;;;;7.28;2.60;;;17.40;99.90;;;;;;6335940;22;20193;-73
2022/10/19 14:27:35;;;;;;;7.97;2.80;;;17.30;99.90;;;;;;6335772;22;20256;-73
2022/10/19 14:30:02;;;;;;;5.87;2.80;;;17.10;99.90;;;;;;6336403;22;20651;-73
2022/10/19 14:32:32;;;;;;;6.57;2.77;;;17.20;99.90;;;;;;6335952;22;20673;-72
2022/10/19 14:35:05;;;;;;;6.65;3.20;;;17.20;99.90;;;;;;6336230;22;20193;-73
2022/10/19 14:37:32;;;;;;;8.00;3.33;;;17.20;99.90;;;;;;6336042;22;20184;-73
2022/10/19 14:40:06;;;;;;;6.10;3.20;;;17.20;99.90;;;;;;6336221;22;20618;-72
2022/10/19 14:42:43;;;;;;;7.80;2.67;;;17.20;99.90;;;;;;6338078;22;20173;-73
2022/10/19 14:45:13;;;;;;;6.73;2.87;;;17.20;99.90;;;;;;6336760;22;20204;-73
2022/10/19 14:47:52;;;;;;;6.63;2.87;;;17.20;99.90;;;;;;6336243;22;20181;-72
2022/10/19 14:50:21;;;;;;;6.47;3.40;;;17.20;99.90;;;;;;6338285;22;20536;-73
2022/10/19 14:52:51;;;;;;;5.13;3.37;;;17.10;99.90;;;;;;6338181;22;20292;-73
2022/10/19 14:55:19;;;;;;;6.73;3.10;;;16.90;99.90;;;;;;6337972;22;20197;-72
2022/10/19 14:57:51;;;;;;;6.80;3.50;;;16.90;99.90;;;;;;6337743;22;20183;-72
2022/10/19 15:00:20;;;;;;;8.77;3.63;;;16.80;99.90;;;;;;6337438;22;20177;-73
2022/10/19 15:02:57;;;;;;;10.53;3.47;;;16.70;99.90;;;;;;6335267;22;20188;-72
2022/10/19 15:05:28;;;;;;;7.60;3.47;;;16.60;99.90;;;;;;6336637;22;20193;-74
2022/10/19 15:07:55;;;;;;;6.37;3.30;;;16.60;99.90;;;;;;6337406;22;20173;-73
2022/10/19 15:10:27;;;;;;;8.13;4.23;;;16.50;99.90;;;;;;6337260;22;20177;-73
2022/10/19 15:13:02;;;;;;;6.47;3.50;;;16.50;99.90;;;;;;6336793;22;20521;-72
2022/10/19 15:15:32;;;;;;;8.07;3.83;;;16.50;99.90;;;;;;6337262;22;20193;-74
2022/10/19 15:18:04;;;;;;;7.40;3.77;;;16.40;99.90;;;;;;6335835;22;20185;-73
2022/10/19 15:20:33;;;;;;;7.70;3.73;;;16.50;99.90;;;;;;6335921;22;20182;-72
2022/10/19 15:23:01;;;;;;;7.53;3.63;;;16.40;99.90;;;;;;6329475;22;20494;-74
2022/10/19 15:25:35;;;;;;;7.60;3.53;;;16.40;99.90;;;;;;6335250;22;20193;-73
2022/10/19 15:28:32;;;;;;;7.70;3.97;;;16.40;99.90;;;;;;6334712;22;20204;-73
2022/10/19 15:31:01;;;;;;;9.60;3.63;;;16.30;99.90;;;;;;6334333;22;20252;-73
2022/10/19 15:33:28;;;;;;;8.17;4.00;;;16.40;99.90;;;;;;6333603;22;20177;-71
2022/10/19 15:36:06;;;;;;;9.00;4.37;;;16.20;99.90;;;;;;6334944;22;20200;-72
2022/10/19 15:38:33;;;;;;;8.83;3.93;;;16.10;99.90;;;;;;6335200;22;20172;-71
2022/10/19 15:41:03;;;;;;;9.37;4.50;;;16.20;99.90;;;;;;6336900;22;20173;-71
2022/10/19 15:43:49;;;;;;;10.90;4.80;;;16.10;99.90;;;;;;6337686;22;20256;-72
2022/10/19 15:46:30;;;;;;;11.30;4.83;;;16.10;99.90;;;;;;6338178;22;20197;-71
2022/10/19 15:48:58;;;;;;;7.77;4.00;;;16.10;99.90;;;;;;6337052;22;20196;-72
2022/10/19 15:51:51;;;;;;;10.40;4.47;;;16.20;99.90;;;;;;6337395;22;20197;-72
2022/10/19 15:54:18;;;;;;;11.23;4.23;;;15.90;99.90;;;;;;6337939;22;20205;-71
2022/10/19 15:56:47;;;;;;;10.77;4.10;;;15.80;99.90;;;;;;6337546;22;20177;-71
2022/10/19 15:59:17;;;;;;;8.03;4.23;;;15.80;99.90;;;;;;6337981;22;20509;-71
2022/10/19 16:01:46;;;;;;;8.80;4.10;;;15.90;99.90;;;;;;6337672;22;20231;-71
2022/10/19 16:04:13;;;;;;;15.07;4.80;;;15.80;99.90;;;;;;6336957;22;20238;-72
2022/10/19 16:06:43;;;;;;;11.67;4.83;;;15.70;99.90;;;;;;6338278;22;20173;-72
2022/10/19 16:09:16;;;;;;;10.20;4.77;;;15.60;99.90;;;;;;6339496;22;20260;-72
2022/10/19 16:11:43;;;;;;;10.70;5.10;;;15.60;99.90;;;;;;6339115;22;20284;-72
2022/10/19 16:14:10;;;;;;;10.27;4.67;;;15.60;99.90;;;;;;6337424;22;20591;-71
2022/10/19 16:16:38;;;;;;;10.63;5.13;;;15.50;99.90;;;;;;6338536;22;20177;-72
2022/10/19 16:19:05;;;;;;;13.60;5.60;;;15.40;99.90;;;;;;6338939;22;20177;-71
2022/10/19 16:21:34;;;;;;;10.17;4.87;;;15.50;99.90;;;;;;6338815;22;20264;-71
2022/10/19 16:24:01;;;;;;;10.83;5.00;;;15.40;99.90;;;;;;6338942;22;20231;-71
2022/10/19 16:26:30;;;;;;;11.37;6.37;;;15.40;99.90;;;;;;6337493;22;20199;-71
2022/10/19 16:28:57;;;;;;;9.43;4.93;;;15.30;99.90;;;;;;6338814;22;20178;-71
2022/10/19 16:31:24;;;;;;;10.60;5.43;;;15.30;99.90;;;;;;6338862;22;20177;-71
2022/10/19 16:33:52;;;;;;;11.80;5.23;;;15.20;99.90;;;;;;6338468;22;20177;-71
2022/10/19 16:36:19;;;;;;;10.33;4.77;;;15.10;99.90;;;;;;6339256;22;20203;-71
2022/10/19 16:38:46;;;;;;;13.53;5.20;;;15.00;99.90;;;;;;6338779;22;20505;-71
2022/10/19 16:41:14;;;;;;;10.97;5.77;;;15.00;99.90;;;;;;6338967;22;20585;-72
2022/10/19 16:43:40;;;;;;;9.67;5.30;;;15.00;99.90;;;;;;6339654;22;20173;-72
2022/10/19 16:46:07;;;;;;;11.07;5.70;;;14.90;99.90;;;;;;6338604;22;20194;-71
2022/10/19 16:48:35;;;;;;;9.40;5.40;;;14.80;99.90;;;;;;6339377;22;20268;-73
2022/10/19 16:51:37;;;;;;;9.50;5.17;;;14.80;99.90;;;;;;6337087;22;20706;-72
2022/10/19 16:54:05;;;;;;;9.07;4.77;;;14.70;99.90;;;;;;6337579;22;20173;-73
2022/10/19 16:56:33;;;;;;;11.40;5.47;;;14.70;99.90;;;;;;6339511;22;20174;-73
2022/10/19 16:59:02;;;;;;;7.77;4.53;;;14.70;99.90;;;;;;6311866;22;20180;-73
2022/10/19 17:01:30;;;;;;;9.23;5.27;;;14.60;99.90;;;;;;6339265;22;20211;-73
2022/10/19 17:03:57;;;;;;;9.50;5.20;;;14.60;99.90;;;;;;6339467;22;20177;-73
2022/10/19 17:06:24;;;;;;;9.83;5.03;;;14.50;99.90;;;;;;6339534;22;20367;-74
2022/10/19 17:08:55;;;;;;;10.20;5.43;;;14.50;99.90;;;;;;6340022;22;20204;-73
2022/10/19 17:11:24;;;;;;;11.13;5.83;;;14.50;99.90;;;;;;6339519;22;20647;-73
2022/10/19 17:13:53;;;;;;;9.27;4.80;;;14.40;99.90;;;;;;6339836;22;20173;-74
2022/10/19 17:16:21;;;;;;;10.97;5.63;;;14.30;99.90;;;;;;6339671;22;20199;-73
2022/10/19 17:18:51;;;;;;;9.73;5.33;;;14.30;99.90;;;;;;6339526;22;20187;-74
2022/10/19 17:21:19;;;;;;;9.37;5.40;;;14.30;99.90;;;;;;6339986;22;20201;-73
2022/10/19 17:23:50;;;;;;;8.30;4.90;;;14.30;99.90;;;;;;6339637;22;20183;-73
2022/10/19 17:26:19;;;;;;;9.00;4.67;;;14.20;99.90;;;;;;6339707;22;20193;-73
2022/10/19 17:28:48;;;;;;;8.20;4.80;;;14.10;99.90;;;;;;6339530;22;20174;-73
2022/10/19 17:31:15;;;;;;;8.43;5.20;;;14.10;99.90;;;;;;6339174;22;20216;-73
2022/10/19 17:33:42;;;;;;;9.23;5.07;;;14.10;99.90;;;;;;6339500;22;20211;-73
2022/10/19 17:36:11;;;;;;;11.03;5.70;;;14.00;99.90;;;;;;6338913;22;20521;-72
2022/10/19 17:38:39;;;;;;;11.93;5.50;;;14.10;99.90;;;;;;6339394;22;20249;-74
2022/10/19 17:41:07;;;;;;;9.13;5.07;;;14.00;99.90;;;;;;6338592;22;20637;-73
2022/10/19 17:43:38;;;;;;;9.23;4.53;;;14.00;99.90;;;;;;6339683;22;20177;-73
2022/10/19 17:46:07;;;;;;;11.10;4.67;;;14.00;99.90;;;;;;6339817;22;20193;-73
2022/10/19 17:48:35;;;;;;;9.87;4.83;;;13.90;99.90;;;;;;6338881;22;20185;-73
2022/10/19 17:51:04;;;;;;;11.57;4.47;;;13.90;99.90;;;;;;6339302;22;20173;-74
2022/10/19 17:53:32;;;;;;;9.17;4.77;;;13.90;99.90;;;;;;6338973;22;20683;-73
2022/10/19 17:56:00;;;;;;;10.10;4.63;;;13.90;99.90;;;;;;6339501;22;20193;-73
2022/10/19 17:58:27;;;;;;;7.23;4.20;;;13.80;99.90;;;;;;6339393;22;20246;-73
2022/10/19 18:00:56;;;;;;;7.70;4.77;;;13.90;99.90;;;;;;6338159;22;20700;-73
2022/10/19 18:03:24;;;;;;;9.97;4.60;;;13.80;99.90;;;;;;6338538;22;20177;-73
2022/10/19 18:06:02;;;;;;;8.90;4.47;;;13.80;99.90;;;;;;6338440;22;20272;-73
2022/10/19 18:08:30;;;;;;;10.83;4.60;;;13.80;99.90;;;;;;6339265;22;20493;-73
2022/10/19 18:10:59;;;;;;;11.03;4.57;;;13.80;99.90;;;;;;6339336;22;20173;-72
2022/10/19 18:13:26;;;;;;;9.70;4.57;;;13.80;99.90;;;;;;6338685;22;20205;-73
2022/10/19 18:15:53;;;;;;;9.50;4.90;;;13.80;99.90;;;;;;6339036;22;20193;-73
2022/10/19 18:18:21;;;;;;;10.73;5.03;;;13.80;99.90;;;;;;6339219;22;20173;-75
2022/10/19 18:20:48;;;;;;;8.27;4.40;;;13.80;99.90;;;;;;6338230;22;20201;-74
2022/10/19 18:23:15;;;;;;;9.93;4.63;;;13.70;99.90;;;;;;6335853;22;20177;-73
2022/10/19 18:25:42;;;;;;;7.40;4.40;;;13.70;99.90;;;;;;6336843;22;20200;-73
2022/10/19 18:28:09;;;;;;;11.27;5.10;;;13.70;99.90;;;;;;6337693;22;20180;-74
2022/10/19 18:30:37;;;;;;;8.87;4.40;;;13.70;99.90;;;;;;6337071;22;20180;-73
2022/10/19 18:33:04;;;;;;;9.43;4.80;;;13.60;99.90;;;;;;6337576;22;20204;-73
2022/10/19 18:35:35;;;;;;;11.97;5.07;;;13.70;99.90;;;;;;6337268;22;20200;-73
2022/10/19 18:38:03;;;;;;;8.90;4.43;;;13.80;99.90;;;;;;6337487;22;20213;-73
2022/10/19 18:40:30;;;;;;;9.07;4.57;;;13.70;99.90;;;;;;6337676;22;20543;-73
2022/10/19 18:42:57;;;;;;;9.70;4.50;;;13.60;99.90;;;;;;6338121;22;20179;-73
2022/10/19 18:45:23;;;;;;;8.73;4.40;;;13.60;99.90;;;;;;6337736;22;20194;-73
2022/10/19 18:47:50;;;;;;;9.50;4.30;;;13.60;99.90;;;;;;6337571;22;20187;-73
2022/10/19 18:50:17;;;;;;;10.87;4.77;;;13.80;99.90;;;;;;6337572;22;20443;-73
2022/10/19 18:52:45;;;;;;;9.47;4.50;;;13.80;99.90;;;;;;6337872;22;20223;-74
2022/10/19 18:55:14;;;;;;;9.73;4.73;;;13.80;99.90;;;;;;6337733;22;20588;-74
2022/10/19 18:57:40;;;;;;;9.60;4.93;;;13.80;99.90;;;;;;6337777;22;20173;-73
2022/10/19 19:00:08;;;;;;;10.97;4.97;;;13.80;99.90;;;;;;6337606;22;20173;-74
2022/10/19 19:02:35;;;;;;;10.10;4.20;;;13.70;99.90;;;;;;6337296;22;20185;-73
2022/10/19 19:05:02;;;;;;;10.30;4.77;;;13.70;99.90;;;;;;6336665;22;20673;-74
2022/10/19 19:07:29;;;;;;;8.50;4.77;;;13.50;99.90;;;;;;6337547;22;20173;-73
2022/10/19 19:09:57;;;;;;;8.03;4.33;;;13.40;99.90;;;;;;6335299;22;20251;-73
2022/10/19 19:12:24;;;;;;;7.57;4.00;;;13.40;99.90;;;;;;6337235;22;20280;-72
2022/10/19 19:14:51;;;;;;;8.10;4.20;;;13.50;99.90;;;;;;6337659;22;20220;-73
2022/10/19 19:17:17;;;;;;;7.50;4.30;;;13.40;99.90;;;;;;6337971;22;20177;-73
2022/10/19 19:19:44;;;;;;;7.67;3.80;;;13.40;99.90;;;;;;6337544;22;20720;-73
2022/10/19 19:22:11;;;;;;;9.67;3.50;;;13.40;99.90;;;;;;6337368;22;20566;-73
2022/10/19 19:24:38;;;;;;;7.23;4.13;;;13.40;99.90;;;;;;6337557;22;20193;-73
2022/10/19 19:27:06;;;;;;;8.90;3.97;;;13.30;99.90;;;;;;6337498;22;20251;-73
2022/10/19 19:29:33;;;;;;;8.93;4.30;;;13.20;99.90;;;;;;6337008;22;20515;-73
2022/10/19 19:32:00;;;;;;;10.17;4.57;;;13.20;99.90;;;;;;6337858;22;20173;-73
2022/10/19 19:34:27;;;;;;;8.00;4.27;;;13.20;99.90;;;;;;6337583;22;20213;-73
2022/10/19 19:36:54;;;;;;;7.17;3.97;;;13.20;99.90;;;;;;6337604;22;20180;-74
2022/10/19 19:39:21;;;;;;;8.00;3.73;;;13.20;99.90;;;;;;6337562;22;20177;-73
2022/10/19 19:41:49;;;;;;;9.33;4.10;;;13.20;99.90;;;;;;6336815;22;20212;-72
2022/10/19 19:44:17;;;;;;;7.87;4.33;;;13.10;99.90;;;;;;6336816;22;20183;-73
2022/10/19 19:46:44;;;;;;;13.27;5.13;;;13.10;99.90;;;;;;6334684;22;20174;-73
2022/10/19 19:49:11;;;;;;;8.33;4.53;;;13.10;99.90;;;;;;6335463;22;20219;-66
2022/10/19 19:51:38;;;;;;;7.30;4.07;;;13.00;99.90;;;;;;6337656;22;20179;-66
2022/10/19 19:54:05;;;;;;;8.50;4.50;;;13.00;99.90;;;;;;6337012;22;20204;-70
2022/10/19 19:56:32;;;;;;;7.37;3.70;;;13.00;99.90;;;;;;6337460;22;20201;-65
2022/10/19 19:59:02;;;;;;;9.83;4.13;;;13.00;99.90;;;;;;6336714;22;20177;-65
2022/10/19 20:01:31;;;;;;;10.90;4.67;;;13.00;99.90;;;;;;6337028;22;20633;-67
2022/10/19 20:04:01;;;;;;;7.77;4.17;;;13.10;99.90;;;;;;6337225;22;20181;-66
2022/10/19 20:06:28;;;;;;;6.27;3.73;;;13.10;99.90;;;;;;6337484;22;20208;-70
2022/10/19 20:08:55;;;;;;;8.27;3.57;;;13.10;99.90;;;;;;6337556;22;20173;-67
2022/10/19 20:11:23;;;;;;;13.43;3.80;;;13.20;99.90;;;;;;6337209;22;20177;-66
2022/10/19 20:13:50;;;;;;;10.80;4.10;;;13.10;99.90;;;;;;6336672;22;20287;-66
2022/10/19 20:16:18;;;;;;;8.97;4.13;;;13.00;99.90;;;;;;6334416;22;20193;-72
2022/10/19 20:18:49;;;;;;;5.90;3.03;;;13.00;99.90;;;;;;6336753;22;20628;-65
2022/10/19 20:21:16;;;;;;;6.43;3.70;;;13.00;99.90;;;;;;6336616;22;20180;-70
2022/10/19 20:23:44;;;;;;;7.80;4.30;;;12.90;99.90;;;;;;6336166;22;20180;-75
2022/10/19 20:26:15;;;;;;;6.90;3.70;;;12.90;99.90;;;;;;6336497;22;20197;-65
2022/10/19 20:28:42;;;;;;;7.63;3.60;;;12.90;99.90;;;;;;6336463;22;20189;-65
2022/10/19 20:31:09;;;;;;;9.13;3.77;;;12.90;99.90;;;;;;6337257;22;20177;-66
2022/10/19 20:33:38;;;;;;;6.53;3.67;;;12.90;99.90;;;;;;6336587;22;20232;-74
2022/10/19 20:36:08;;;;;;;6.93;3.27;;;12.80;99.90;;;;;;6336594;22;20199;-66
2022/10/19 20:38:35;;;;;;;8.27;4.30;;;12.80;99.90;;;;;;6337072;22;20173;-65
2022/10/19 20:41:03;;;;;;;7.93;3.83;;;12.80;99.90;;;;;;6336678;22;20228;-68
2022/10/19 20:43:30;;;;;;;7.43;4.03;;;12.80;99.90;;;;;;6337236;22;20173;-70
2022/10/19 20:46:02;;;;;;;8.73;3.37;;;12.80;99.90;;;;;;6337552;22;20193;-65
2022/10/19 20:48:29;;;;;;;6.60;4.00;;;12.90;99.90;;;;;;6336965;22;20641;-66
2022/10/19 20:51:06;;;;;;;8.73;3.57;;;12.90;99.90;;;;;;6335176;22;20188;-65
2022/10/19 20:53:34;;;;;;;10.33;3.63;;;12.90;99.90;;;;;;6338132;22;20205;-65
2022/10/19 20:56:04;;;;;;;9.13;4.33;;;12.90;99.90;;;;;;6338633;22;20197;-65